createdAt,value
2016-09-28T00:00:51.238Z,0
2016-09-28T00:01:51.546Z,0
2016-09-28T00:02:51.600Z,0
2016-09-28T00:03:50.877Z,0
2016-09-28T00:04:51.824Z,0
2016-09-28T00:05:51.501Z,0
2016-09-28T00:06:51.802Z,0
2016-09-28T00:07:51.791Z,0
2016-09-28T00:08:51.438Z,0
2016-09-28T00:09:51.430Z,0
2016-09-28T00:10:51.098Z,0
2016-09-28T00:11:51.716Z,0
2016-09-28T00:12:51.516Z,0
2016-09-28T00:13:51.685Z,0
2016-09-28T00:14:51.676Z,0
2016-09-28T00:15:51.024Z,0
2016-09-28T00:16:51.645Z,0
2016-09-28T00:17:50.994Z,0
2016-09-28T00:18:51.286Z,0
2016-09-28T00:19:50.958Z,0
2016-09-28T00:20:50.717Z,0
2016-09-28T00:21:51.245Z,0
2016-09-28T00:22:51.542Z,0
2016-09-28T00:23:51.205Z,0
2016-09-28T00:24:51.524Z,0
2016-09-28T00:25:51.179Z,0
2016-09-28T00:26:50.541Z,0
2016-09-28T00:27:51.490Z,0
2016-09-28T00:28:51.191Z,0
2016-09-28T00:29:50.500Z,0
2016-09-28T00:30:51.445Z,0
2016-09-28T00:31:51.423Z,0
2016-09-28T00:32:51.401Z,0
2016-09-28T00:33:51.410Z,0
2016-09-28T00:34:51.065Z,0
2016-09-28T00:35:50.714Z,0
2016-09-28T00:36:51.336Z,0
2016-09-28T00:37:51.162Z,0
2016-09-28T00:38:51.434Z,0
2016-09-28T00:39:51.381Z,0
2016-09-28T00:40:50.984Z,0
2016-09-28T00:41:51.348Z,0
2016-09-28T00:42:50.650Z,0
2016-09-28T00:43:51.243Z,0
2016-09-28T00:44:50.907Z,0
2016-09-28T00:45:51.212Z,0
2016-09-28T00:46:51.292Z,0
2016-09-28T00:47:50.863Z,0
2016-09-28T00:48:51.213Z,0
2016-09-28T00:49:50.835Z,0
2016-09-28T00:50:51.243Z,0
2016-09-28T00:51:50.809Z,0
2016-09-28T00:52:50.476Z,0
2016-09-28T00:53:50.826Z,0
2016-09-28T00:54:50.875Z,0
2016-09-28T00:55:50.803Z,0
2016-09-28T00:56:50.766Z,0
2016-09-28T00:57:51.141Z,0
2016-09-28T00:58:50.387Z,0
2016-09-28T00:59:50.675Z,0
2016-09-28T01:00:50.998Z,0
2016-09-28T01:01:51.001Z,0
2016-09-28T01:02:50.323Z,0
2016-09-28T01:03:50.936Z,0
2016-09-28T01:04:50.591Z,0
2016-09-28T01:05:50.898Z,0
2016-09-28T01:06:50.894Z,0
2016-09-28T01:07:50.655Z,0
2016-09-28T01:08:50.879Z,0
2016-09-28T01:09:50.523Z,0
2016-09-28T01:10:50.837Z,0
2016-09-28T01:11:50.506Z,0
2016-09-28T01:12:50.494Z,0
2016-09-28T01:13:50.216Z,0
2016-09-28T01:14:50.475Z,0
2016-09-28T01:15:50.453Z,0
2016-09-28T01:16:50.420Z,0
2016-09-28T01:17:50.415Z,0
2016-09-28T01:18:50.386Z,0
2016-09-28T01:19:50.376Z,0
2016-09-28T01:20:49.717Z,0
2016-09-28T01:21:50.682Z,0
2016-09-28T01:22:50.403Z,0
2016-09-28T01:23:50.862Z,0
2016-09-28T01:24:50.319Z,0
2016-09-28T01:25:50.284Z,0
2016-09-28T01:26:49.994Z,0
2016-09-28T01:27:49.950Z,0
2016-09-28T01:28:50.595Z,0
2016-09-28T01:29:50.223Z,0
2016-09-28T01:30:50.565Z,0
2016-09-28T01:31:49.882Z,0
2016-09-28T01:32:50.502Z,0
2016-09-28T01:33:49.843Z,0
2016-09-28T01:34:50.301Z,0
2016-09-28T01:35:50.128Z,0
2016-09-28T01:36:50.195Z,0
2016-09-28T01:37:50.101Z,0
2016-09-28T01:38:49.772Z,0
2016-09-28T01:39:50.097Z,0
2016-09-28T01:40:50.064Z,0
2016-09-28T01:41:50.052Z,0
2016-09-28T01:42:50.356Z,0
2016-09-28T01:43:49.692Z,0
2016-09-28T01:44:50.548Z,0
2016-09-28T01:45:49.994Z,0
2016-09-28T01:46:50.293Z,0
2016-09-28T01:47:49.945Z,0
2016-09-28T01:48:49.941Z,0
2016-09-28T01:49:50.244Z,0
2016-09-28T01:50:50.244Z,0
2016-09-28T01:51:49.881Z,0
2016-09-28T01:52:50.215Z,0
2016-09-28T01:53:49.868Z,0
2016-09-28T01:54:50.172Z,0
2016-09-28T01:55:49.831Z,0
2016-09-28T01:56:50.140Z,0
2016-09-28T01:57:50.133Z,0
2016-09-28T01:58:49.787Z,0
2016-09-28T01:59:49.773Z,0
2016-09-28T02:00:49.751Z,0
2016-09-28T02:01:50.053Z,0
2016-09-28T02:02:50.052Z,0
2016-09-28T02:03:50.021Z,0
2016-09-28T02:04:49.687Z,0
2016-09-28T02:05:49.382Z,0
2016-09-28T02:06:49.661Z,0
2016-09-28T02:07:49.980Z,0
2016-09-28T02:08:49.629Z,0
2016-09-28T02:09:49.609Z,0
2016-09-28T02:10:49.289Z,0
2016-09-28T02:11:49.264Z,0
2016-09-28T02:12:49.884Z,0
2016-09-28T02:13:49.912Z,0
2016-09-28T02:14:49.212Z,0
2016-09-28T02:15:49.200Z,0
2016-09-28T02:16:49.512Z,0
2016-09-28T02:17:49.512Z,0
2016-09-28T02:18:49.478Z,0
2016-09-28T02:19:49.781Z,0
2016-09-28T02:20:49.436Z,0
2016-09-28T02:21:49.219Z,0
2016-09-28T02:22:49.742Z,0
2016-09-28T02:23:49.402Z,0
2016-09-28T02:24:49.713Z,0
2016-09-28T02:25:49.479Z,0
2016-09-28T02:26:49.352Z,0
2016-09-28T02:27:49.039Z,0
2016-09-28T02:28:49.333Z,0
2016-09-28T02:29:49.643Z,0
2016-09-28T02:30:48.635Z,0
2016-09-28T02:31:49.298Z,0
2016-09-28T02:32:49.590Z,0
2016-09-28T02:33:48.969Z,0
2016-09-28T02:34:49.231Z,0
2016-09-28T02:35:48.889Z,0
2016-09-28T02:36:48.883Z,0
2016-09-28T02:37:48.873Z,0
2016-09-28T02:38:49.489Z,0
2016-09-28T02:39:49.257Z,0
2016-09-28T02:40:48.802Z,0
2016-09-28T02:41:49.445Z,0
2016-09-28T02:42:49.427Z,0
2016-09-28T02:43:49.186Z,0
2016-09-28T02:44:48.738Z,0
2016-09-28T02:45:48.729Z,0
2016-09-28T02:46:49.109Z,0
2016-09-28T02:47:49.039Z,0
2016-09-28T02:48:49.353Z,0
2016-09-28T02:49:49.043Z,0
2016-09-28T02:50:48.991Z,0
2016-09-28T02:51:48.967Z,0
2016-09-28T02:52:49.289Z,0
2016-09-28T02:53:49.362Z,0
2016-09-28T02:54:48.949Z,0
2016-09-28T02:55:48.592Z,0
2016-09-28T02:56:49.202Z,0
2016-09-28T02:57:49.202Z,0
2016-09-28T02:58:48.863Z,0
2016-09-28T02:59:48.270Z,0
2016-09-28T03:00:49.163Z,0
2016-09-28T03:01:48.543Z,0
2016-09-28T03:02:48.844Z,0
2016-09-28T03:03:49.147Z,0
2016-09-28T03:04:49.193Z,0
2016-09-28T03:05:49.141Z,0
2016-09-28T03:06:49.146Z,0
2016-09-28T03:07:48.773Z,0
2016-09-28T03:08:48.060Z,0
2016-09-28T03:09:48.690Z,0
2016-09-28T03:10:48.729Z,0
2016-09-28T03:11:48.983Z,0
2016-09-28T03:12:49.015Z,0
2016-09-28T03:13:49.004Z,0
2016-09-28T03:14:49.004Z,0
2016-09-28T03:15:48.289Z,0
2016-09-28T03:16:48.583Z,0
2016-09-28T03:17:48.974Z,0
2016-09-28T03:18:48.553Z,0
2016-09-28T03:19:48.210Z,0
2016-09-28T03:20:48.524Z,0
2016-09-28T03:21:48.831Z,0
2016-09-28T03:22:48.919Z,0
2016-09-28T03:23:48.465Z,0
2016-09-28T03:24:48.771Z,0
2016-09-28T03:25:48.830Z,0
2016-09-28T03:26:48.421Z,0
2016-09-28T03:27:48.739Z,0
2016-09-28T03:28:48.724Z,0
2016-09-28T03:29:48.774Z,0
2016-09-28T03:30:48.423Z,0
2016-09-28T03:31:48.354Z,0
2016-09-28T03:32:47.702Z,0
2016-09-28T03:33:48.314Z,0
2016-09-28T03:34:48.625Z,0
2016-09-28T03:35:48.301Z,0
2016-09-28T03:36:48.263Z,0
2016-09-28T03:37:48.300Z,0
2016-09-28T03:38:48.554Z,0
2016-09-28T03:39:48.231Z,0
2016-09-28T03:40:48.230Z,0
2016-09-28T03:41:48.511Z,0
2016-09-28T03:42:48.502Z,0
2016-09-28T03:43:48.165Z,0
2016-09-28T03:44:48.474Z,0
2016-09-28T03:45:47.920Z,0
2016-09-28T03:46:48.445Z,0
2016-09-28T03:47:48.423Z,0
2016-09-28T03:48:48.408Z,0
2016-09-28T03:49:48.092Z,0
2016-09-28T03:50:48.061Z,0
2016-09-28T03:51:48.030Z,0
2016-09-28T03:52:48.035Z,0
2016-09-28T03:53:48.002Z,0
2016-09-28T03:54:48.314Z,0
2016-09-28T03:55:48.304Z,0
2016-09-28T03:56:48.034Z,0
2016-09-28T03:57:48.281Z,0
2016-09-28T03:58:48.275Z,0
2016-09-28T03:59:47.594Z,0
2016-09-28T04:00:48.214Z,0
2016-09-28T04:01:48.203Z,0
2016-09-28T04:02:48.195Z,0
2016-09-28T04:03:47.531Z,0
2016-09-28T04:04:47.510Z,0
2016-09-28T04:05:47.504Z,0
2016-09-28T04:06:48.125Z,0
2016-09-28T04:07:48.109Z,0
2016-09-28T04:08:47.772Z,0
2016-09-28T04:09:48.074Z,0
2016-09-28T04:10:47.750Z,0
2016-09-28T04:11:47.734Z,0
2016-09-28T04:12:47.731Z,0
2016-09-28T04:13:48.023Z,0
2016-09-28T04:14:47.362Z,0
2016-09-28T04:15:47.352Z,0
2016-09-28T04:16:47.651Z,0
2016-09-28T04:17:47.971Z,0
2016-09-28T04:18:47.317Z,0
2016-09-28T04:19:47.613Z,0
2016-09-28T04:20:46.967Z,0
2016-09-28T04:21:47.904Z,0
2016-09-28T04:22:47.563Z,0
2016-09-28T04:23:47.879Z,0
2016-09-28T04:24:47.860Z,0
2016-09-28T04:25:47.194Z,0
2016-09-28T04:26:47.834Z,0
2016-09-28T04:27:47.473Z,0
2016-09-28T04:28:47.161Z,0
2016-09-28T04:29:47.783Z,0
2016-09-28T04:30:47.751Z,0
2016-09-28T04:31:47.744Z,0
2016-09-28T04:32:47.102Z,0
2016-09-28T04:33:47.390Z,0
2016-09-28T04:34:47.392Z,0
2016-09-28T04:35:47.047Z,0
2016-09-28T04:36:47.342Z,0
2016-09-28T04:37:47.335Z,0
2016-09-28T04:38:46.983Z,0
2016-09-28T04:39:47.652Z,0
2016-09-28T04:40:46.961Z,0
2016-09-28T04:41:47.269Z,0
2016-09-28T04:42:47.254Z,0
2016-09-28T04:43:47.565Z,0
2016-09-28T04:44:47.210Z,0
2016-09-28T04:45:47.465Z,0
2016-09-28T04:46:47.209Z,0
2016-09-28T04:47:46.875Z,0
2016-09-28T04:48:46.544Z,0
2016-09-28T04:49:47.469Z,0
2016-09-28T04:50:47.585Z,0
2016-09-28T04:51:47.450Z,0
2016-09-28T04:52:47.094Z,0
2016-09-28T04:53:47.484Z,0
2016-09-28T04:54:47.070Z,0
2016-09-28T04:55:47.385Z,0
2016-09-28T04:56:46.430Z,0
2016-09-28T04:57:47.095Z,0
2016-09-28T04:58:47.317Z,0
2016-09-28T04:59:47.331Z,0
2016-09-28T05:00:46.974Z,4
2016-09-28T05:01:46.665Z,4
2016-09-28T05:02:46.631Z,4
2016-09-28T05:03:47.245Z,4
2016-09-28T05:04:47.022Z,4
2016-09-28T05:05:46.584Z,0
2016-09-28T05:06:46.313Z,4
2016-09-28T05:07:47.201Z,4
2016-09-28T05:08:47.177Z,4
2016-09-28T05:09:47.155Z,4
2016-09-28T05:10:47.152Z,8
2016-09-28T05:11:47.123Z,8
2016-09-28T05:12:46.505Z,8
2016-09-28T05:13:46.788Z,12
2016-09-28T05:14:47.091Z,8
2016-09-28T05:15:46.423Z,12
2016-09-28T05:16:46.435Z,12
2016-09-28T05:17:46.804Z,16
2016-09-28T05:18:46.390Z,16
2016-09-28T05:19:47.062Z,16
2016-09-28T05:20:46.710Z,20
2016-09-28T05:21:46.653Z,20
2016-09-28T05:22:46.958Z,20
2016-09-28T05:23:46.961Z,24
2016-09-28T05:24:46.951Z,28
2016-09-28T05:25:46.952Z,32
2016-09-28T05:26:46.659Z,36
2016-09-28T05:27:46.559Z,44
2016-09-28T05:28:46.553Z,48
2016-09-28T05:29:46.528Z,60
2016-09-28T05:30:46.831Z,68
2016-09-28T05:31:46.830Z,76
2016-09-28T05:32:46.489Z,84
2016-09-28T05:33:46.494Z,92
2016-09-28T05:34:46.793Z,108
2016-09-28T05:35:46.424Z,120
2016-09-28T05:36:46.421Z,132
2016-09-28T05:37:46.402Z,136
2016-09-28T05:38:46.071Z,140
2016-09-28T05:39:46.035Z,156
2016-09-28T05:40:46.104Z,176
2016-09-28T05:41:46.340Z,204
2016-09-28T05:42:46.642Z,224
2016-09-28T05:43:46.654Z,264
2016-09-28T05:44:46.621Z,312
2016-09-28T05:45:46.601Z,384
2016-09-28T05:46:46.293Z,468
2016-09-28T05:47:45.942Z,556
2016-09-28T05:48:46.563Z,644
2016-09-28T05:49:46.219Z,720
2016-09-28T05:50:46.214Z,748
2016-09-28T05:51:46.512Z,844
2016-09-28T05:52:46.500Z,912
2016-09-28T05:53:46.490Z,944
2016-09-28T05:54:45.878Z,1004
2016-09-28T05:55:46.132Z,1076
2016-09-28T05:56:46.119Z,1144
2016-09-28T05:57:46.213Z,1112
2016-09-28T05:58:46.407Z,1156
2016-09-28T05:59:45.743Z,1180
2016-09-28T06:00:46.054Z,1220
2016-09-28T06:01:46.363Z,1252
2016-09-28T06:02:46.608Z,1272
2016-09-28T06:03:46.002Z,1316
2016-09-28T06:04:45.672Z,1076
2016-09-28T06:05:45.658Z,996
2016-09-28T06:06:45.633Z,896
2016-09-28T06:07:46.272Z,816
2016-09-28T06:08:46.242Z,708
2016-09-28T06:09:45.923Z,672
2016-09-28T06:10:45.594Z,608
2016-09-28T06:11:46.201Z,640
2016-09-28T06:12:46.196Z,604
2016-09-28T06:13:45.861Z,576
2016-09-28T06:14:45.853Z,740
2016-09-28T06:15:45.511Z,796
2016-09-28T06:16:45.500Z,752
2016-09-28T06:17:45.485Z,804
2016-09-28T06:18:45.776Z,1036
2016-09-28T06:19:46.089Z,988
2016-09-28T06:20:45.435Z,1380
2016-09-28T06:21:46.060Z,1924
2016-09-28T06:22:45.410Z,1760
2016-09-28T06:23:45.703Z,1116
2016-09-28T06:24:45.683Z,852
2016-09-28T06:25:46.052Z,704
2016-09-28T06:26:45.981Z,632
2016-09-28T06:27:45.634Z,572
2016-09-28T06:28:45.961Z,500
2016-09-28T06:29:45.615Z,480
2016-09-28T06:30:45.906Z,464
2016-09-28T06:31:45.262Z,516
2016-09-28T06:32:45.932Z,536
2016-09-28T06:33:45.561Z,524
2016-09-28T06:34:45.236Z,524
2016-09-28T06:35:44.920Z,516
2016-09-28T06:36:45.831Z,504
2016-09-28T06:37:45.482Z,508
2016-09-28T06:38:45.484Z,500
2016-09-28T06:39:45.152Z,580
2016-09-28T06:40:45.137Z,660
2016-09-28T06:41:45.121Z,616
2016-09-28T06:42:45.424Z,444
2016-09-28T06:43:45.407Z,476
2016-09-28T06:44:45.706Z,736
2016-09-28T06:45:45.378Z,904
2016-09-28T06:46:45.350Z,872
2016-09-28T06:47:45.669Z,748
2016-09-28T06:48:45.020Z,784
2016-09-28T06:49:45.342Z,916
2016-09-28T06:50:44.973Z,920
2016-09-28T06:51:44.962Z,780
2016-09-28T06:52:44.682Z,836
2016-09-28T06:53:45.275Z,848
2016-09-28T06:54:45.235Z,952
2016-09-28T06:55:44.913Z,1000
2016-09-28T06:56:44.883Z,1020
2016-09-28T06:57:45.522Z,908
2016-09-28T06:58:45.175Z,852
2016-09-28T06:59:45.171Z,988
2016-09-28T07:00:45.479Z,968
2016-09-28T07:01:45.160Z,896
2016-09-28T07:02:44.783Z,924
2016-09-28T07:03:45.447Z,872
2016-09-28T07:04:45.105Z,800
2016-09-28T07:05:45.394Z,832
2016-09-28T07:06:45.065Z,820
2016-09-28T07:07:45.446Z,772
2016-09-28T07:08:45.011Z,716
2016-09-28T07:09:45.437Z,784
2016-09-28T07:10:45.002Z,804
2016-09-28T07:11:44.735Z,844
2016-09-28T07:12:44.763Z,872
2016-09-28T07:13:45.290Z,880
2016-09-28T07:14:44.969Z,900
2016-09-28T07:15:44.923Z,968
2016-09-28T07:16:44.909Z,992
2016-09-28T07:17:44.924Z,1056
2016-09-28T07:18:44.563Z,1056
2016-09-28T07:19:44.624Z,1176
2016-09-28T07:20:45.273Z,1300
2016-09-28T07:21:44.837Z,1240
2016-09-28T07:22:44.494Z,1356
2016-09-28T07:23:45.179Z,1464
2016-09-28T07:24:45.160Z,1604
2016-09-28T07:25:44.759Z,1560
2016-09-28T07:26:44.751Z,1796
2016-09-28T07:27:44.113Z,1940
2016-09-28T07:28:44.399Z,1812
2016-09-28T07:29:44.792Z,1656
2016-09-28T07:30:44.147Z,1652
2016-09-28T07:31:44.050Z,1660
2016-09-28T07:32:44.374Z,1964
2016-09-28T07:33:44.665Z,2052
2016-09-28T07:34:44.976Z,2060
2016-09-28T07:35:44.910Z,2220
2016-09-28T07:36:44.928Z,2512
2016-09-28T07:37:44.598Z,2664
2016-09-28T07:38:44.595Z,3072
2016-09-28T07:39:44.683Z,3492
2016-09-28T07:40:44.881Z,3576
2016-09-28T07:41:44.204Z,4100
2016-09-28T07:42:44.526Z,8016
2016-09-28T07:43:44.516Z,12152
2016-09-28T07:44:44.488Z,12916
2016-09-28T07:45:44.480Z,18720
2016-09-28T07:46:44.474Z,26976
2016-09-28T07:47:44.790Z,26240
2016-09-28T07:48:44.104Z,46720
2016-09-28T07:49:44.535Z,80096
2016-09-28T07:50:44.737Z,29984
2016-09-28T07:51:44.705Z,28896
2016-09-28T07:52:44.053Z,30464
2016-09-28T07:53:44.689Z,8280
2016-09-28T07:54:44.354Z,6428
2016-09-28T07:55:44.341Z,7856
2016-09-28T07:56:44.020Z,10864
2016-09-28T07:57:44.324Z,21600
2016-09-28T07:58:44.643Z,48672
2016-09-28T07:59:44.374Z,33856
2016-09-28T08:00:43.976Z,38688
2016-09-28T08:01:43.634Z,34432
2016-09-28T08:02:44.363Z,19968
2016-09-28T08:03:44.249Z,18944
2016-09-28T08:04:44.246Z,13572
2016-09-28T08:05:44.557Z,8028
2016-09-28T08:06:43.902Z,5784
2016-09-28T08:07:44.215Z,4920
2016-09-28T08:08:44.534Z,5684
2016-09-28T08:09:44.490Z,5564
2016-09-28T08:10:44.497Z,4684
2016-09-28T08:11:43.854Z,4412
2016-09-28T08:12:43.487Z,4376
2016-09-28T08:13:44.143Z,4284
2016-09-28T08:14:44.438Z,4452
2016-09-28T08:15:44.120Z,4796
2016-09-28T08:16:44.451Z,4800
2016-09-28T08:17:44.075Z,4512
2016-09-28T08:18:44.157Z,4744
2016-09-28T08:19:44.383Z,4780
2016-09-28T08:20:44.044Z,4192
2016-09-28T08:21:44.027Z,3484
2016-09-28T08:22:44.018Z,3900
2016-09-28T08:23:43.361Z,5412
2016-09-28T08:24:43.672Z,6532
2016-09-28T08:25:44.303Z,6676
2016-09-28T08:26:43.646Z,5024
2016-09-28T08:27:44.373Z,5356
2016-09-28T08:28:43.926Z,4864
2016-09-28T08:29:43.925Z,7800
2016-09-28T08:30:43.903Z,21184
2016-09-28T08:31:43.905Z,58688
2016-09-28T08:32:43.557Z,59712
2016-09-28T08:33:43.869Z,65088
2016-09-28T08:34:44.187Z,61600
2016-09-28T08:35:44.190Z,54240
2016-09-28T08:36:43.524Z,60448
2016-09-28T08:37:43.838Z,56832
2016-09-28T08:38:44.166Z,63488
2016-09-28T08:39:44.213Z,59616
2016-09-28T08:40:44.162Z,71328
2016-09-28T08:41:43.797Z,66304
2016-09-28T08:42:43.470Z,23680
2016-09-28T08:43:43.774Z,15196
2016-09-28T08:44:43.809Z,13960
2016-09-28T08:45:43.756Z,14092
2016-09-28T08:46:44.134Z,12264
2016-09-28T08:47:43.745Z,11280
2016-09-28T08:48:44.051Z,11148
2016-09-28T08:49:44.037Z,11380
2016-09-28T08:50:44.034Z,11660
2016-09-28T08:51:43.703Z,11840
2016-09-28T08:52:44.017Z,12912
2016-09-28T08:53:43.704Z,18368
2016-09-28T08:54:43.677Z,47840
2016-09-28T08:55:43.729Z,39552
2016-09-28T08:56:43.664Z,48256
2016-09-28T08:57:43.977Z,41120
2016-09-28T08:58:43.955Z,40576
2016-09-28T08:59:43.642Z,54080
2016-09-28T09:00:43.298Z,45248
2016-09-28T09:01:43.615Z,52544
2016-09-28T09:02:43.617Z,43840
2016-09-28T09:03:43.925Z,39136
2016-09-28T09:04:42.954Z,37824
2016-09-28T09:05:43.253Z,22464
2016-09-28T09:06:43.264Z,42144
2016-09-28T09:07:43.254Z,47552
2016-09-28T09:08:43.564Z,61888
2016-09-28T09:09:43.599Z,70400
2016-09-28T09:10:43.222Z,72288
2016-09-28T09:11:43.544Z,54496
2016-09-28T09:12:43.525Z,42080
2016-09-28T09:13:43.855Z,44992
2016-09-28T09:14:43.822Z,17952
2016-09-28T09:15:43.297Z,55232
2016-09-28T09:16:43.502Z,60896
2016-09-28T09:17:43.177Z,24608
2016-09-28T09:19:43.796Z,71456
2016-09-28T09:20:43.474Z,57184
2016-09-28T09:21:43.525Z,63840
2016-09-28T09:22:43.132Z,42944
2016-09-28T09:23:43.146Z,48064
2016-09-28T09:24:43.443Z,49184
2016-09-28T09:25:43.877Z,14152
2016-09-28T09:26:43.753Z,14924
2016-09-28T09:27:43.454Z,31584
2016-09-28T09:28:43.432Z,41664
2016-09-28T09:29:43.465Z,43936
2016-09-28T09:30:43.728Z,44160
2016-09-28T09:31:43.394Z,40480
2016-09-28T09:32:43.404Z,35200
2016-09-28T09:33:43.698Z,18656
2016-09-28T09:34:43.374Z,16640
2016-09-28T09:35:43.375Z,18528
2016-09-28T09:36:43.694Z,14316
2016-09-28T09:37:43.352Z,8328
2016-09-28T09:38:43.348Z,10256
2016-09-28T09:39:43.024Z,8924
2016-09-28T09:40:43.664Z,9048
2016-09-28T09:41:43.004Z,11264
2016-09-28T09:42:43.408Z,11448
2016-09-28T09:43:43.636Z,10608
2016-09-28T09:44:43.393Z,6892
2016-09-28T09:45:43.295Z,6736
2016-09-28T09:46:43.283Z,7620
2016-09-28T09:47:43.276Z,7508
2016-09-28T09:48:42.999Z,5904
2016-09-28T09:49:43.269Z,4516
2016-09-28T09:50:43.276Z,5468
2016-09-28T09:51:43.222Z,14532
2016-09-28T09:52:43.555Z,7272
2016-09-28T09:53:43.547Z,6284
2016-09-28T09:54:43.539Z,4472
2016-09-28T09:55:42.671Z,4064
2016-09-28T09:56:43.203Z,3688
2016-09-28T09:57:43.178Z,3568
2016-09-28T09:58:43.111Z,4012
2016-09-28T09:59:43.179Z,4068
2016-09-28T10:00:43.497Z,3480
2016-09-28T10:01:43.166Z,3400
2016-09-28T10:02:43.178Z,6824
2016-09-28T10:03:42.562Z,4020
2016-09-28T10:04:43.152Z,3908
2016-09-28T10:05:42.783Z,3744
2016-09-28T10:06:43.148Z,3028
2016-09-28T10:07:43.393Z,3808
2016-09-28T10:08:43.456Z,3776
2016-09-28T10:09:42.740Z,3292
2016-09-28T10:10:43.378Z,3224
2016-09-28T10:11:43.406Z,5668
2016-09-28T10:12:43.399Z,5196
2016-09-28T10:13:42.690Z,5196
2016-09-28T10:14:42.741Z,16064
2016-09-28T10:15:42.988Z,7076
2016-09-28T10:16:43.056Z,4456
2016-09-28T10:17:42.958Z,3964
2016-09-28T10:18:42.695Z,4952
2016-09-28T10:19:42.639Z,5632
2016-09-28T10:20:42.935Z,6112
2016-09-28T10:21:42.596Z,7752
2016-09-28T10:22:43.225Z,5464
2016-09-28T10:23:42.914Z,5416
2016-09-28T10:24:43.198Z,9156
2016-09-28T10:25:42.570Z,8984
2016-09-28T10:26:42.884Z,9312
2016-09-28T10:27:42.854Z,18624
2016-09-28T10:28:42.854Z,15244
2016-09-28T10:29:42.839Z,11380
2016-09-28T10:30:42.627Z,7256
2016-09-28T10:31:42.830Z,7276
2016-09-28T10:32:42.806Z,12332
2016-09-28T10:33:42.865Z,14528
2016-09-28T10:34:43.088Z,21472
2016-09-28T10:35:42.769Z,13200
2016-09-28T10:36:42.786Z,21088
2016-09-28T10:37:43.072Z,29696
2016-09-28T10:38:42.795Z,35424
2016-09-28T10:39:42.736Z,21728
2016-09-28T10:40:42.068Z,23936
2016-09-28T10:41:42.373Z,23200
2016-09-28T10:42:42.379Z,22432
2016-09-28T10:43:43.016Z,21632
2016-09-28T10:44:42.365Z,24320
2016-09-28T10:45:42.355Z,25504
2016-09-28T10:46:42.659Z,12408
2016-09-28T10:47:42.988Z,25152
2016-09-28T10:48:42.647Z,12608
2016-09-28T10:49:42.636Z,24352
2016-09-28T10:50:42.648Z,18400
2016-09-28T10:51:42.621Z,18304
2016-09-28T10:52:42.285Z,20768
2016-09-28T10:53:42.977Z,9312
2016-09-28T10:54:42.918Z,10372
2016-09-28T10:55:42.917Z,14848
2016-09-28T10:56:42.928Z,16224
2016-09-28T10:57:42.939Z,15076
2016-09-28T10:58:42.574Z,13416
2016-09-28T10:59:42.867Z,10848
2016-09-28T11:00:42.248Z,14808
2016-09-28T11:01:42.214Z,11240
2016-09-28T11:02:42.220Z,9460
2016-09-28T11:03:42.220Z,11288
2016-09-28T11:04:42.840Z,8176
2016-09-28T11:05:42.498Z,8924
2016-09-28T11:06:42.164Z,9180
2016-09-28T11:07:42.801Z,7816
2016-09-28T11:08:42.457Z,9052
2016-09-28T11:09:42.456Z,10812
2016-09-28T11:10:42.798Z,11532
2016-09-28T11:11:42.121Z,11812
2016-09-28T11:12:42.756Z,11524
2016-09-28T11:13:42.109Z,12168
2016-09-28T11:14:42.090Z,11540
2016-09-28T11:15:42.736Z,10784
2016-09-28T11:16:42.391Z,11468
2016-09-28T11:17:42.107Z,11336
2016-09-28T11:18:42.375Z,11756
2016-09-28T11:19:42.677Z,12364
2016-09-28T11:20:42.682Z,12588
2016-09-28T11:21:42.671Z,13304
2016-09-28T11:22:43.718Z,11088
2016-09-28T11:23:42.334Z,10144
2016-09-28T11:24:42.639Z,10872
2016-09-28T11:25:42.318Z,11380
2016-09-28T11:26:42.286Z,10668
2016-09-28T11:27:42.617Z,9252
2016-09-28T11:28:42.279Z,10196
2016-09-28T11:29:42.582Z,9840
2016-09-28T11:30:42.307Z,9752
2016-09-28T11:31:42.260Z,11052
2016-09-28T11:32:41.592Z,10828
2016-09-28T11:33:42.206Z,10356
2016-09-28T11:34:41.899Z,8948
2016-09-28T11:35:42.568Z,8792
2016-09-28T11:36:42.269Z,9656
2016-09-28T11:37:42.187Z,11128
2016-09-28T11:38:41.860Z,11576
2016-09-28T11:39:42.182Z,10672
2016-09-28T11:40:42.165Z,10080
2016-09-28T11:41:41.505Z,8960
2016-09-28T11:42:42.469Z,8392
2016-09-28T11:43:42.131Z,8880
2016-09-28T11:44:42.140Z,8776
2016-09-28T11:45:42.106Z,9052
2016-09-28T11:46:42.109Z,9284
2016-09-28T11:47:42.098Z,9296
2016-09-28T11:48:41.769Z,9464
2016-09-28T11:49:42.145Z,9668
2016-09-28T11:50:42.477Z,10192
2016-09-28T11:51:41.750Z,11084
2016-09-28T11:52:42.062Z,11164
2016-09-28T11:53:42.030Z,11108
2016-09-28T11:54:42.034Z,10428
2016-09-28T11:55:42.035Z,11012
2016-09-28T11:56:41.694Z,10956
2016-09-28T11:57:41.999Z,10644
2016-09-28T11:58:41.679Z,10728
2016-09-28T11:59:41.986Z,10704
2016-09-28T12:00:41.955Z,10648
2016-09-28T12:01:42.285Z,10164
2016-09-28T12:02:42.271Z,10084
2016-09-28T12:03:42.096Z,9988
2016-09-28T12:04:42.257Z,10052
2016-09-28T12:05:41.949Z,9756
2016-09-28T12:06:41.907Z,9516
2016-09-28T12:07:42.051Z,9652
2016-09-28T12:08:41.882Z,10016
2016-09-28T12:09:41.566Z,9700
2016-09-28T12:10:41.230Z,9568
2016-09-28T12:11:41.865Z,9368
2016-09-28T12:12:42.209Z,8976
2016-09-28T12:13:42.176Z,10228
2016-09-28T12:14:41.836Z,10276
2016-09-28T12:15:42.159Z,9144
2016-09-28T12:16:41.827Z,8176
2016-09-28T12:17:42.328Z,7624
2016-09-28T12:18:42.129Z,7476
2016-09-28T12:19:41.799Z,7448
2016-09-28T12:20:41.466Z,7320
2016-09-28T12:21:42.113Z,7208
2016-09-28T12:22:41.775Z,7072
2016-09-28T12:23:42.075Z,7268
2016-09-28T12:24:41.748Z,7496
2016-09-28T12:25:41.470Z,7512
2016-09-28T12:26:42.060Z,7284
2016-09-28T12:27:42.035Z,6888
2016-09-28T12:28:41.699Z,6564
2016-09-28T12:29:42.096Z,6668
2016-09-28T12:30:41.689Z,6764
2016-09-28T12:31:41.063Z,6412
2016-09-28T12:32:41.684Z,6100
2016-09-28T12:33:41.985Z,5952
2016-09-28T12:34:41.314Z,5816
2016-09-28T12:35:41.329Z,5864
2016-09-28T12:36:41.645Z,6092
2016-09-28T12:37:40.975Z,6428
2016-09-28T12:38:41.615Z,6376
2016-09-28T12:39:40.954Z,6376
2016-09-28T12:40:41.605Z,6356
2016-09-28T12:41:41.572Z,6708
2016-09-28T12:42:40.916Z,7004
2016-09-28T12:43:40.909Z,7036
2016-09-28T12:44:41.544Z,6968
2016-09-28T12:45:41.535Z,6960
2016-09-28T12:46:41.845Z,6936
2016-09-28T12:47:41.871Z,6624
2016-09-28T12:48:40.896Z,6412
2016-09-28T12:49:41.871Z,6400
2016-09-28T12:50:41.162Z,6560
2016-09-28T12:51:41.576Z,6856
2016-09-28T12:52:41.199Z,7180
2016-09-28T12:53:41.173Z,7248
2016-09-28T12:54:41.746Z,7012
2016-09-28T12:55:41.797Z,6752
2016-09-28T12:56:41.481Z,6600
2016-09-28T12:57:41.712Z,6312
2016-09-28T12:58:41.404Z,6112
2016-09-28T12:59:41.719Z,5980
2016-09-28T13:00:41.045Z,6012
2016-09-28T13:01:41.388Z,6428
2016-09-28T13:02:41.362Z,6260
2016-09-28T13:03:41.362Z,6188
2016-09-28T13:04:41.332Z,5904
2016-09-28T13:05:41.322Z,5736
2016-09-28T13:06:41.632Z,5536
2016-09-28T13:07:41.629Z,5364
2016-09-28T13:08:41.277Z,5248
2016-09-28T13:09:41.306Z,5136
2016-09-28T13:10:41.627Z,5040
2016-09-28T13:11:41.595Z,4848
2016-09-28T13:12:41.569Z,4672
2016-09-28T13:13:41.559Z,4544
2016-09-28T13:14:41.248Z,4384
2016-09-28T13:15:41.008Z,4124
2016-09-28T13:16:40.623Z,3880
2016-09-28T13:17:41.215Z,3680
2016-09-28T13:18:41.511Z,3448
2016-09-28T13:19:41.501Z,3240
2016-09-28T13:20:41.478Z,3084
2016-09-28T13:21:41.251Z,2984
2016-09-28T13:22:41.475Z,3040
2016-09-28T13:23:41.485Z,3324
2016-09-28T13:24:40.843Z,3932
2016-09-28T13:25:41.531Z,4304
2016-09-28T13:26:41.425Z,4540
2016-09-28T13:27:41.217Z,4600
2016-09-28T13:28:41.485Z,4440
2016-09-28T13:29:41.064Z,4288
2016-09-28T13:30:41.171Z,4408
2016-09-28T13:31:40.733Z,4640
2016-09-28T13:32:41.369Z,5064
2016-09-28T13:33:41.337Z,5356
2016-09-28T13:34:41.024Z,5680
2016-09-28T13:35:40.996Z,5932
2016-09-28T13:36:41.310Z,6200
2016-09-28T13:37:40.979Z,6900
2016-09-28T13:38:40.980Z,6740
2016-09-28T13:39:41.280Z,7796
2016-09-28T13:40:40.997Z,6760
2016-09-28T13:41:40.942Z,6552
2016-09-28T13:42:40.297Z,6516
2016-09-28T13:43:40.616Z,6612
2016-09-28T13:44:40.595Z,6244
2016-09-28T13:45:40.968Z,6388
2016-09-28T13:46:40.903Z,6216
2016-09-28T13:47:41.254Z,6176
2016-09-28T13:48:41.212Z,8224
2016-09-28T13:49:41.180Z,6868